Time;durP1;ratioP1;P1;durP2;ratioP2;P2;SDS_P1;SDS_P2;PMS_P1;PMS_P2;Temp;Humidity;BMP_temperature;BMP_pressure;BME280_temperature;BME280_humidity;BME280_pressure;Samples;Min_cycle;Max_cycle;Signal;HPM_P1;HPM_P2
2021/03/25 00:01:32;;;;;;;161.35;62.75;;;;;;;4.23;66.34;99064.31;5092098;28;20070;-83
2021/03/25 00:03:58;;;;;;;159.38;63.03;;;;;;;4.16;65.96;99057.09;5092742;28;20051;-83
2021/03/25 00:06:25;;;;;;;162.48;63.72;;;;;;;4.10;66.46;99052.63;5093141;28;20027;-82
2021/03/25 00:08:51;;;;;;;171.52;64.20;;;;;;;4.06;66.41;99061.50;5092529;28;20020;-81
2021/03/25 00:11:16;;;;;;;172.38;67.18;;;;;;;4.04;65.68;99053.59;5091364;28;20012;-83
2021/03/25 00:13:42;;;;;;;166.88;67.07;;;;;;;4.01;66.49;99059.47;5092411;28;20107;-81
2021/03/25 00:16:08;;;;;;;166.45;64.07;;;;;;;3.99;66.36;99050.75;5091446;28;20085;-80
2021/03/25 00:18:35;;;;;;;169.98;67.45;;;;;;;3.98;65.96;99055.38;5091561;28;20028;-80
2021/03/25 00:21:01;;;;;;;179.68;66.70;;;;;;;3.97;66.50;99055.59;5092001;28;20107;-78
2021/03/25 00:23:26;;;;;;;203.27;80.65;;;;;;;3.92;65.97;99055.47;5092494;28;20020;-81
2021/03/25 00:25:52;;;;;;;189.75;75.20;;;;;;;3.92;66.82;99052.75;5091558;28;20031;-81
2021/03/25 00:28:18;;;;;;;176.88;77.82;;;;;;;3.91;67.14;99054.66;5091431;28;20039;-80
2021/03/25 00:30:44;;;;;;;173.13;71.72;;;;;;;3.86;66.83;99044.53;5091915;28;20531;-82
2021/03/25 00:33:12;;;;;;;177.60;68.00;;;;;;;3.86;66.90;99046.41;5092314;28;20024;-82
2021/03/25 00:35:39;;;;;;;165.80;64.82;;;;;;;3.86;67.34;99044.53;5092121;28;20032;-83
2021/03/25 00:38:05;;;;;;;179.90;74.05;;;;;;;3.85;66.40;99040.16;5092038;28;20028;-82
2021/03/25 00:40:31;;;;;;;203.93;79.97;;;;;;;3.85;66.85;99040.16;5092167;28;20028;-83
2021/03/25 00:42:57;;;;;;;198.55;77.50;;;;;;;3.85;67.08;99040.16;5092016;28;20418;-82
2021/03/25 00:45:30;;;;;;;187.80;75.50;;;;;;;3.91;66.53;99042.97;5092509;28;20116;-83
2021/03/25 00:47:56;;;;;;;176.25;69.15;;;;;;;3.95;67.52;99036.00;5091860;28;20051;-82
2021/03/25 00:50:30;;;;;;;175.27;69.22;;;;;;;3.98;67.49;99030.94;5092341;28;20024;-82
2021/03/25 00:52:57;;;;;;;160.00;62.38;;;;;;;4.05;67.02;99035.41;5090662;28;20114;-81
2021/03/25 00:55:23;;;;;;;149.75;60.45;;;;;;;4.15;67.17;99028.31;5090042;28;20054;-82
2021/03/25 00:57:48;;;;;;;152.98;60.28;;;;;;;4.26;67.40;99033.94;5090250;28;20047;-83
2021/03/25 01:00:22;;;;;;;160.27;61.28;;;;;;;4.31;66.76;99034.03;5089869;28;20380;-82
2021/03/25 01:02:47;;;;;;;156.88;61.00;;;;;;;4.32;67.25;99022.94;5088561;28;20036;-82
2021/03/25 01:05:14;;;;;;;159.60;60.35;;;;;;;4.29;66.15;99023.44;5090488;28;20024;-81
2021/03/25 01:07:39;;;;;;;142.32;58.33;;;;;;;4.26;66.99;99017.66;5090046;28;20035;-81
2021/03/25 01:10:15;;;;;;;150.20;61.42;;;;;;;4.23;67.06;99020.84;5092002;28;20387;-81
2021/03/25 01:12:41;;;;;;;165.95;66.00;;;;;;;4.27;66.30;99020.13;5092062;28;20016;-81
2021/03/25 01:15:07;;;;;;;142.77;57.05;;;;;;;4.38;66.56;99020.34;5091836;28;20018;-82
2021/03/25 01:17:34;;;;;;;147.15;55.42;;;;;;;4.46;66.83;99014.53;5091220;28;20109;-81
2021/03/25 01:19:59;;;;;;;133.68;55.13;;;;;;;4.49;66.83;99015.91;5091705;28;20031;-81
2021/03/25 01:22:25;;;;;;;125.18;50.70;;;;;;;4.43;66.30;99013.09;5091346;28;20024;-81
2021/03/25 01:24:50;;;;;;;138.27;52.63;;;;;;;4.39;66.90;99011.13;5091614;28;20454;-81
2021/03/25 01:27:16;;;;;;;131.15;52.50;;;;;;;4.40;66.79;99005.44;5088673;28;20374;-81
2021/03/25 01:29:41;;;;;;;127.07;50.70;;;;;;;4.43;66.92;99006.84;5091282;28;20032;-81
2021/03/25 01:32:07;;;;;;;131.23;50.95;;;;;;;4.41;66.08;99001.66;5091304;28;20372;-81
2021/03/25 01:34:32;;;;;;;131.07;53.40;;;;;;;4.42;66.01;99006.00;5091503;28;20012;-81
2021/03/25 01:36:57;;;;;;;137.20;54.10;;;;;;;4.46;66.90;98995.50;5091658;28;20016;-81
2021/03/25 01:39:23;;;;;;;146.68;56.72;;;;;;;4.54;66.55;98997.00;5091189;28;20061;-82
2021/03/25 01:41:48;;;;;;;139.20;55.08;;;;;;;4.59;66.17;98994.38;5091308;28;20107;-81
2021/03/25 01:44:38;;;;;;;138.93;54.65;;;;;;;4.57;66.05;99002.75;5091245;28;20024;-81
2021/03/25 01:47:05;;;;;;;;;;;;;;;4.55;66.38;98990.50;5090250;28;20028;-81
2021/03/25 01:49:30;;;;;;;157.48;61.15;;;;;;;4.57;66.47;98989.19;5091155;28;19922;-81
2021/03/25 01:52:07;;;;;;;165.00;64.43;;;;;;;4.61;66.70;98984.91;5091385;28;20019;-82
2021/03/25 01:55:03;;;;;;;164.43;63.65;;;;;;;4.63;65.96;98981.97;5091120;28;20054;-81
2021/03/25 01:57:39;;;;;;;159.63;63.42;;;;;;;4.62;66.27;98980.31;5090626;28;20036;-81
2021/03/25 02:00:32;;;;;;;155.35;61.65;;;;;;;4.57;66.49;98977.50;5089374;28;20215;-81
2021/03/25 02:03:15;;;;;;;149.43;57.40;;;;;;;4.50;66.02;98984.97;5089602;28;20047;-82
2021/03/25 02:05:41;;;;;;;151.15;58.47;;;;;;;4.39;65.46;98979.34;5088909;28;20040;-82
2021/03/25 02:08:32;;;;;;;158.40;62.97;;;;;;;4.31;65.41;98977.00;5091041;28;20038;-81
2021/03/25 02:11:03;;;;;;;145.77;55.90;;;;;;;4.26;65.54;98980.47;5088522;28;20054;-81
2021/03/25 02:14:08;;;;;;;125.05;48.25;;;;;;;4.21;65.60;98977.63;5090852;28;20035;-81
2021/03/25 02:16:51;;;;;;;116.63;47.40;;;;;;;4.16;66.39;98977.53;5062685;28;20036;-81
2021/03/25 02:19:39;;;;;;;100.68;42.88;;;;;;;4.15;65.77;98974.00;5088490;28;20032;-81
2021/03/25 02:22:07;;;;;;;112.95;47.72;;;;;;;4.19;65.82;98973.53;5089461;28;20020;-81
2021/03/25 02:25:15;;;;;;;102.55;44.42;;;;;;;4.25;66.88;98969.84;5094572;28;20027;-81
2021/03/25 02:28:16;;;;;;;101.43;42.60;;;;;;;4.23;66.30;98969.28;5094388;28;20115;-81
2021/03/25 02:30:44;;;;;;;102.80;44.05;;;;;;;4.27;66.83;98965.81;5066773;28;20064;-81
2021/03/25 02:33:14;;;;;;;103.18;45.72;;;;;;;4.29;66.44;98973.69;5094515;28;20618;-81
2021/03/25 02:35:44;;;;;;;110.82;45.28;;;;;;;4.22;66.12;98973.84;5091954;28;20028;-81
2021/03/25 02:38:17;;;;;;;116.97;49.85;;;;;;;4.13;66.07;98976.13;5095007;28;20020;-81
2021/03/25 02:40:48;;;;;;;112.00;47.03;;;;;;;4.09;65.74;98974.97;5092901;28;20020;-81
2021/03/25 02:43:20;;;;;;;111.95;46.85;;;;;;;4.14;66.41;98964.22;5094884;28;20016;-81
2021/03/25 02:45:54;;;;;;;104.28;44.45;;;;;;;4.22;66.47;98960.28;5094853;28;20024;-81
2021/03/25 02:48:24;;;;;;;96.05;40.10;;;;;;;4.25;66.40;98969.84;5093512;28;20020;-80
2021/03/25 02:50:56;;;;;;;110.82;45.88;;;;;;;4.22;66.27;98957.56;5094694;28;20383;-81
2021/03/25 02:53:36;;;;;;;98.35;42.90;;;;;;;4.27;66.90;98962.28;5093849;28;20477;-81
2021/03/25 02:56:10;;;;;;;100.07;40.92;;;;;;;4.29;66.31;98960.13;5092202;28;20387;-81
2021/03/25 02:58:39;;;;;;;108.75;45.47;;;;;;;4.22;66.69;98957.56;5094580;28;20020;-81
2021/03/25 03:01:10;;;;;;;129.95;50.05;;;;;;;4.16;65.99;98951.22;5092453;28;20545;-81
2021/03/25 03:03:42;;;;;;;131.55;51.72;;;;;;;4.19;66.49;98952.63;5093925;28;20154;-81
2021/03/25 03:06:18;;;;;;;124.72;50.45;;;;;;;4.26;66.94;98955.22;5094375;28;20031;-81
2021/03/25 03:08:46;;;;;;;110.57;49.03;;;;;;;4.34;66.13;98954.00;5092224;28;20027;-81
2021/03/25 03:11:18;;;;;;;108.03;45.00;;;;;;;4.40;66.14;98947.59;5094163;28;20422;-81
2021/03/25 03:13:50;;;;;;;104.18;44.65;;;;;;;4.41;65.92;98955.47;5092263;28;20023;-82
2021/03/25 03:16:20;;;;;;;101.63;43.78;;;;;;;4.44;66.68;98960.44;5093583;28;20533;-82
2021/03/25 03:18:56;;;;;;;107.82;46.35;;;;;;;4.45;65.84;98958.53;5093780;28;20062;-82
2021/03/25 03:21:27;;;;;;;109.82;45.90;;;;;;;4.48;66.31;98955.34;5091965;28;20028;-81
2021/03/25 03:23:53;;;;;;;109.95;45.38;;;;;;;4.50;66.58;98955.09;5093359;28;20082;-82
2021/03/25 03:26:26;;;;;;;103.43;44.28;;;;;;;4.54;66.21;98961.69;5093654;28;20032;-82
2021/03/25 03:29:03;;;;;;;108.00;44.55;;;;;;;4.54;66.56;98948.09;5093738;28;20027;-82
2021/03/25 03:31:35;;;;;;;107.47;45.15;;;;;;;4.54;66.01;98956.25;5092605;28;20089;-82
2021/03/25 03:34:05;;;;;;;97.03;40.63;;;;;;;4.48;65.90;98949.91;5090620;28;20030;-82
2021/03/25 03:36:31;;;;;;;104.03;43.97;;;;;;;4.43;66.36;98947.91;5093537;28;20645;-81
2021/03/25 03:38:59;;;;;;;126.07;51.15;;;;;;;4.42;66.08;98954.41;5093918;28;20099;-81
2021/03/25 03:41:30;;;;;;;121.82;49.05;;;;;;;4.45;66.43;98950.41;5093531;28;20545;-82
2021/03/25 03:44:00;;;;;;;114.32;45.78;;;;;;;4.47;66.16;98943.66;5093495;28;20024;-82
2021/03/25 03:46:28;;;;;;;119.10;45.88;;;;;;;4.49;65.56;98945.28;5093000;28;20541;-81
2021/03/25 03:49:32;;;;;;;106.35;43.75;;;;;;;4.49;66.16;98948.00;5093301;28;20024;-81
2021/03/25 03:52:02;;;;;;;103.57;44.42;;;;;;;4.46;66.12;98947.44;5081090;28;20122;-81
2021/03/25 03:54:28;;;;;;;108.70;43.13;;;;;;;4.48;65.67;98949.91;5093170;28;20058;-81
2021/03/25 03:57:10;;;;;;;100.25;43.17;;;;;;;4.47;65.82;98943.66;5092845;28;20028;-82
2021/03/25 03:59:48;;;;;;;96.45;40.72;;;;;;;4.46;65.43;98952.06;5092801;28;20120;-81
2021/03/25 04:02:53;;;;;;;101.50;43.42;;;;;;;4.41;65.80;98951.94;5091905;28;20048;-81
2021/03/25 04:05:30;;;;;;;104.00;44.30;;;;;;;4.37;65.71;98948.06;5090255;28;20035;-81
2021/03/25 04:08:34;;;;;;;103.78;42.85;;;;;;;4.37;65.81;98935.31;5092736;28;20426;-82
2021/03/25 04:11:19;;;;;;;97.53;42.00;;;;;;;4.40;66.03;98939.44;5061692;28;20044;-81
2021/03/25 04:14:06;;;;;;;100.53;41.47;;;;;;;4.36;65.87;98938.28;5091250;28;20440;-81
2021/03/25 04:16:36;;;;;;;102.38;43.53;;;;;;;4.34;65.82;98930.34;5091645;28;20063;-80
2021/03/25 04:19:09;;;;;;;97.07;41.45;;;;;;;4.36;66.07;98939.09;5090538;28;20035;-82
2021/03/25 04:22:09;;;;;;;92.18;40.05;;;;;;;4.39;66.29;98944.03;5092974;28;20020;-82
2021/03/25 04:24:43;;;;;;;96.43;41.95;;;;;;;4.41;65.60;98936.47;5078547;28;20036;-81
2021/03/25 04:27:17;;;;;;;88.85;40.03;;;;;;;4.43;65.49;98937.03;5093093;28;20028;-82
2021/03/25 04:29:52;;;;;;;96.07;41.25;;;;;;;4.44;66.46;98932.47;5090177;28;20093;-81
2021/03/25 04:32:17;;;;;;;97.47;41.00;;;;;;;4.41;65.66;98944.63;5092377;28;20016;-81
2021/03/25 04:34:43;;;;;;;94.65;42.70;;;;;;;4.41;65.89;98935.66;5092513;28;20023;-81
2021/03/25 04:37:09;;;;;;;91.28;40.63;;;;;;;4.40;65.34;98936.72;5092515;28;20410;-82
2021/03/25 04:39:38;;;;;;;89.53;38.95;;;;;;;4.34;65.76;98941.22;5092294;28;20103;-82
2021/03/25 04:42:05;;;;;;;97.90;43.13;;;;;;;4.31;65.97;98937.13;5092324;28;20035;-82
2021/03/25 04:44:43;;;;;;;99.07;41.80;;;;;;;4.30;65.95;98931.91;5092245;28;20641;-82
2021/03/25 04:47:19;;;;;;;96.72;43.45;;;;;;;4.27;66.24;98943.28;5090634;28;20020;-82
2021/03/25 04:50:06;;;;;;;101.15;42.35;;;;;;;4.28;65.87;98944.94;5089985;28;20020;-82
2021/03/25 04:52:34;;;;;;;98.55;41.80;;;;;;;4.29;65.91;98936.53;5091072;28;20025;-81
2021/03/25 04:55:26;;;;;;;104.20;43.10;;;;;;;4.26;66.02;98937.00;5089159;28;20027;-81
2021/03/25 04:57:58;;;;;;;92.90;40.13;;;;;;;4.20;65.79;98935.25;5087962;28;20054;-83
2021/03/25 05:00:36;;;;;;;101.05;44.75;;;;;;;4.15;66.08;98936.00;5088038;28;20487;-85
2021/03/25 05:03:04;;;;;;;92.97;40.30;;;;;;;4.20;66.00;98945.31;5089359;28;20140;-81
2021/03/25 05:05:31;;;;;;;86.47;38.45;;;;;;;4.25;65.52;98950.84;5092052;28;20472;-81
2021/03/25 05:08:00;;;;;;;72.32;34.67;;;;;;;4.27;65.94;98946.00;5091546;28;20491;-80
2021/03/25 05:10:50;;;;;;;74.97;36.08;;;;;;;4.31;65.54;98944.41;5090658;28;20055;-80
2021/03/25 05:13:26;;;;;;;;;;;;;;;4.35;65.93;98950.22;5090198;28;20036;-80
2021/03/25 05:16:01;;;;;;;72.05;31.92;;;;;;;4.34;65.81;98952.09;5091151;28;20590;-80
2021/03/25 05:18:31;;;;;;;74.10;33.97;;;;;;;4.36;65.77;98952.66;5089696;28;20024;-80
2021/03/25 05:21:07;;;;;;;77.78;35.22;;;;;;;4.40;66.39;98948.41;5091371;28;20468;-80
2021/03/25 05:23:54;;;;;;;84.90;37.10;;;;;;;4.44;66.01;98955.00;5091305;28;20028;-80
2021/03/25 05:26:38;;;;;;;81.75;36.33;;;;;;;4.49;65.98;98956.97;5090152;28;20024;-80
2021/03/25 05:29:06;;;;;;;82.05;37.92;;;;;;;4.51;65.24;98962.97;5089741;28;20019;-81
2021/03/25 05:31:35;;;;;;;84.40;37.25;;;;;;;4.57;65.87;98958.47;5091075;28;20135;-80
2021/03/25 05:34:06;;;;;;;92.18;41.45;;;;;;;4.57;65.23;98962.00;5089264;28;20100;-80
2021/03/25 05:36:33;;;;;;;122.85;55.38;;;;;;;4.60;65.97;98958.81;5091684;28;20032;-80
2021/03/25 05:38:59;;;;;;;111.75;52.40;;;;;;;4.65;65.64;98955.38;5091274;28;20409;-80
2021/03/25 05:42:03;;;;;;;105.25;51.28;;;;;;;4.64;65.49;98961.88;5091278;28;20092;-80
2021/03/25 05:44:35;;;;;;;98.80;47.15;;;;;;;4.71;65.52;98965.25;5089400;28;20036;-80
2021/03/25 05:47:28;;;;;;;91.93;41.72;;;;;;;4.77;66.19;98958.81;5088901;28;20543;-80
2021/03/25 05:49:59;;;;;;;90.85;41.15;;;;;;;4.81;65.90;98963.78;5090181;28;20073;-81
2021/03/25 05:52:56;;;;;;;93.10;40.50;;;;;;;4.77;65.64;98966.97;5091217;28;20020;-81
2021/03/25 05:55:37;;;;;;;89.95;39.00;;;;;;;4.80;65.40;98975.72;5064691;28;20543;-80
2021/03/25 05:58:11;;;;;;;81.57;36.33;;;;;;;4.76;65.69;98975.38;5090494;28;20034;-80
2021/03/25 06:00:49;;;;;;;92.28;41.65;;;;;;;4.77;65.17;98974.31;5094848;28;20024;-80
2021/03/25 06:03:17;;;;;;;84.78;38.78;;;;;;;4.79;65.52;98969.47;5094795;28;20492;-80
2021/03/25 06:05:51;;;;;;;87.38;38.53;;;;;;;4.79;65.07;98968.63;5092889;28;20074;-79
2021/03/25 06:08:19;;;;;;;95.18;41.70;;;;;;;4.88;65.22;98978.88;5094934;28;20027;-79
2021/03/25 06:11:23;;;;;;;89.40;38.72;;;;;;;4.94;65.83;98976.22;5094792;28;20084;-80
2021/03/25 06:14:27;;;;;;;89.05;38.63;;;;;;;4.97;65.64;98975.72;5095190;28;20024;-80
2021/03/25 06:17:07;;;;;;;88.55;40.83;;;;;;;5.10;65.71;98977.28;5093941;28;20085;-80
2021/03/25 06:19:44;;;;;;;88.63;40.47;;;;;;;5.18;65.85;98976.88;5093883;28;20036;-81
2021/03/25 06:22:17;;;;;;;89.60;40.75;;;;;;;5.29;65.56;98970.53;5095105;28;20031;-80
2021/03/25 06:25:08;;;;;;;89.15;40.40;;;;;;;5.36;65.65;98976.63;5092361;28;20028;-80
2021/03/25 06:28:00;;;;;;;87.43;40.50;;;;;;;5.48;65.32;98978.44;5085552;28;20140;-80
2021/03/25 06:30:35;;;;;;;79.10;35.33;;;;;;;5.53;64.82;98974.94;5093713;28;20109;-79
2021/03/25 06:33:14;;;;;;;86.82;38.13;;;;;;;5.57;64.95;98985.06;5091626;28;20035;-80
2021/03/25 06:35:46;;;;;;;92.88;40.60;;;;;;;5.62;65.07;98984.34;5094333;28;20032;-79
2021/03/25 06:38:39;;;;;;;95.90;40.55;;;;;;;5.65;64.96;98981.13;5094196;28;20472;-79
2021/03/25 06:41:17;;;;;;;81.47;37.15;;;;;;;5.73;64.36;98980.66;5087840;28;20038;-79
2021/03/25 06:43:50;;;;;;;85.22;39.60;;;;;;;5.72;64.73;98984.47;5091721;28;20039;-79
2021/03/25 06:46:45;;;;;;;85.15;37.97;;;;;;;5.77;64.84;98989.97;5094144;28;20032;-78
2021/03/25 06:49:24;;;;;;;95.53;41.35;;;;;;;5.84;64.27;98989.81;5091314;28;20421;-79
2021/03/25 06:51:53;;;;;;;77.22;35.42;;;;;;;5.87;64.76;98994.75;5092858;28;20024;-80
2021/03/25 06:54:25;;;;;;;94.30;42.30;;;;;;;5.86;64.05;98995.81;5094006;28;20028;-79
2021/03/25 06:56:53;;;;;;;96.85;44.53;;;;;;;5.90;63.87;98996.97;5092534;28;20020;-79
2021/03/25 06:59:26;;;;;;;96.88;44.00;;;;;;;5.99;64.26;99001.97;5093345;28;20107;-79
2021/03/25 07:02:15;;;;;;;88.18;38.83;;;;;;;6.03;64.09;98993.06;5093643;28;20022;-79
2021/03/25 07:04:45;;;;;;;85.23;37.07;;;;;;;5.95;63.36;98997.00;5090754;28;20036;-80
2021/03/25 07:07:19;;;;;;;84.70;38.70;;;;;;;5.89;63.36;98997.22;5094698;28;20040;-80
2021/03/25 07:09:46;;;;;;;82.00;36.05;;;;;;;5.87;63.55;99004.81;5094972;28;20110;-80
2021/03/25 07:12:21;;;;;;;74.55;34.65;;;;;;;5.88;63.69;99006.44;5093588;28;20096;-80
2021/03/25 07:14:48;;;;;;;70.45;34.20;;;;;;;5.94;63.84;99002.72;5094914;28;20016;-80
2021/03/25 07:17:16;;;;;;;164.27;60.83;;;;;;;6.02;63.30;99004.22;5095034;28;20012;-80
2021/03/25 07:19:46;;;;;;;274.23;89.63;;;;;;;6.06;63.80;99010.78;5095054;28;20047;-80
2021/03/25 07:22:30;;;;;;;191.10;66.03;;;;;;;6.08;63.80;99000.47;5095145;28;20389;-79
2021/03/25 07:25:17;;;;;;;107.28;40.80;;;;;;;6.18;63.79;99003.34;5094829;28;20407;-79
2021/03/25 07:27:43;;;;;;;107.55;42.00;;;;;;;6.21;63.12;98999.25;5092692;28;20483;-80
2021/03/25 07:30:18;;;;;;;177.48;55.28;;;;;;;6.21;62.73;99002.81;5094842;28;20039;-79
2021/03/25 07:33:04;;;;;;;139.50;47.00;;;;;;;6.24;62.87;99007.78;5094845;28;20028;-82
2021/03/25 07:35:43;;;;;;;155.60;52.17;;;;;;;6.30;62.94;99005.91;5095354;28;20403;-79
2021/03/25 07:38:40;;;;;;;214.43;64.10;;;;;;;6.33;62.29;99001.84;5094957;28;20024;-80
2021/03/25 07:41:11;;;;;;;139.40;47.35;;;;;;;6.37;62.35;99001.09;5078203;28;20082;-80
2021/03/25 07:43:55;;;;;;;250.68;81.57;;;;;;;6.42;62.45;99005.78;5094845;28;20024;-79
2021/03/25 07:46:34;;;;;;;90.10;38.70;;;;;;;6.51;62.00;99001.53;5094547;28;20028;-81
2021/03/25 07:49:11;;;;;;;79.60;37.33;;;;;;;6.58;62.31;99011.41;5093210;28;20027;-79
2021/03/25 07:51:56;;;;;;;130.30;73.88;;;;;;;6.78;62.28;99003.41;5093166;28;20491;-79
2021/03/25 07:54:34;;;;;;;100.57;56.72;;;;;;;6.97;62.87;99003.06;5093487;28;20016;-80
2021/03/25 07:57:05;;;;;;;112.80;65.03;;;;;;;7.13;62.47;99006.75;5091734;28;20020;-79
2021/03/25 07:59:33;;;;;;;172.70;102.85;;;;;;;7.15;61.85;99005.38;5093000;28;20034;-79
2021/03/25 08:01:59;;;;;;;96.13;48.63;;;;;;;7.17;61.36;99009.75;5091270;28;20206;-78
2021/03/25 08:04:27;;;;;;;145.68;57.90;;;;;;;7.18;61.29;99008.69;5092796;28;20094;-77
2021/03/25 08:07:11;;;;;;;198.50;72.55;;;;;;;7.29;61.25;99011.25;5092769;28;20020;-77
2021/03/25 08:09:58;;;;;;;204.88;73.07;;;;;;;7.44;61.35;99012.44;5092888;28;20032;-77
2021/03/25 08:12:26;;;;;;;220.77;76.32;;;;;;;7.59;61.34;99015.28;5093094;28;20052;-77
2021/03/25 08:15:05;;;;;;;114.57;49.35;;;;;;;7.70;61.07;99005.22;5092786;28;20523;-77
2021/03/25 08:17:42;;;;;;;208.85;73.38;;;;;;;7.84;61.10;99004.78;5093163;28;20028;-77
2021/03/25 08:20:32;;;;;;;149.45;67.65;;;;;;;8.00;61.28;99008.41;5093421;28;20056;-78
2021/03/25 08:23:11;;;;;;;98.97;41.80;;;;;;;8.11;61.01;99012.00;5094357;28;20531;-77
2021/03/25 08:25:41;;;;;;;115.63;46.30;;;;;;;8.14;60.31;99012.31;5094190;28;20028;-77
2021/03/25 08:28:42;;;;;;;93.35;45.22;;;;;;;8.12;59.56;99006.28;5094127;28;20020;-79
2021/03/25 08:31:19;;;;;;;98.05;45.97;;;;;;;8.10;58.83;99008.47;5093906;28;20074;-78
2021/03/25 08:34:18;;;;;;;134.07;51.65;;;;;;;8.07;58.66;99005.41;5093998;28;20028;-78
2021/03/25 08:37:02;;;;;;;114.95;45.80;;;;;;;8.06;58.75;99007.34;5093984;28;20024;-79
2021/03/25 08:39:34;;;;;;;99.80;41.55;;;;;;;8.05;57.99;99005.69;5093652;28;20032;-76
2021/03/25 08:42:20;;;;;;;69.43;34.22;;;;;;;8.03;57.85;98999.69;5093794;28;20034;-77
2021/03/25 08:45:20;;;;;;;87.70;38.85;;;;;;;8.12;58.17;99002.72;5093814;28;20024;-76
2021/03/25 08:47:58;;;;;;;84.55;41.33;;;;;;;8.26;58.47;98992.94;5093531;28;20495;-78
2021/03/25 08:50:26;;;;;;;112.70;51.42;;;;;;;8.52;58.57;98994.97;5093830;28;20592;-76
2021/03/25 08:52:54;;;;;;;67.03;32.42;;;;;;;8.69;57.47;98994.75;5093728;28;20031;-76
2021/03/25 08:55:28;;;;;;;80.78;37.58;;;;;;;8.68;57.37;98998.56;5093494;28;20028;-78
2021/03/25 08:58:27;;;;;;;76.18;35.53;;;;;;;8.81;57.14;99000.75;5093332;28;20472;-78
2021/03/25 09:00:59;;;;;;;112.93;55.67;;;;;;;8.86;56.62;98995.28;5081578;28;20414;-77
2021/03/25 09:03:33;;;;;;;140.40;88.70;;;;;;;8.94;56.62;98989.28;5092863;28;20492;-77
2021/03/25 09:06:01;;;;;;;120.53;74.00;;;;;;;9.08;57.60;98996.97;5093039;28;20024;-77
2021/03/25 09:08:30;;;;;;;1263.78;685.53;;;;;;;9.19;56.87;98990.38;5093035;28;20115;-76
2021/03/25 09:11:00;;;;;;;549.95;289.58;;;;;;;9.32;57.14;98989.03;5093178;28;20048;-77
2021/03/25 09:13:32;;;;;;;110.63;55.45;;;;;;;9.45;56.54;98989.53;5092879;28;20024;-76
2021/03/25 09:16:07;;;;;;;74.75;40.75;;;;;;;9.63;55.83;98990.88;5092712;28;20024;-77
2021/03/25 09:18:32;;;;;;;133.70;94.68;;;;;;;9.71;55.57;98987.59;5092732;28;20039;-79
2021/03/25 09:21:10;;;;;;;72.45;36.30;;;;;;;9.74;55.69;98983.50;5092724;28;20024;-75
2021/03/25 09:23:40;;;;;;;69.18;36.42;;;;;;;9.88;56.20;98991.94;5092681;28;20035;-76
2021/03/25 09:26:09;;;;;;;;;;;;;;;10.00;55.82;98986.94;5093234;28;20031;-76
2021/03/25 09:28:52;;;;;;;61.70;33.50;;;;;;;10.10;55.25;98980.63;5092844;28;19935;-78
2021/03/25 09:31:18;;;;;;;59.67;32.17;;;;;;;10.07;54.25;98972.97;5092718;28;20107;-78
2021/03/25 09:33:55;;;;;;;64.68;33.00;;;;;;;10.12;55.10;98981.16;5092777;28;20108;-77
2021/03/25 09:36:21;;;;;;;61.08;30.88;;;;;;;10.15;54.30;98977.88;5092816;28;20028;-77
2021/03/25 09:38:58;;;;;;;60.80;31.33;;;;;;;10.16;54.32;98973.19;5092589;28;20096;-77
2021/03/25 09:41:31;;;;;;;61.00;31.35;;;;;;;10.16;53.58;98979.50;5092509;28;20032;-77
2021/03/25 09:44:08;;;;;;;140.80;68.05;;;;;;;10.20;54.63;98975.09;5092444;28;20031;-76
2021/03/25 09:46:59;;;;;;;158.70;89.35;;;;;;;10.11;52.98;98979.53;5092278;28;20025;-76
2021/03/25 09:49:36;;;;;;;59.53;32.03;;;;;;;10.04;52.77;98976.25;5092380;28;20081;-77
2021/03/25 09:52:33;;;;;;;46.22;24.42;;;;;;;10.06;52.47;98980.34;5092468;28;20024;-78
2021/03/25 09:55:11;;;;;;;49.50;27.05;;;;;;;10.00;51.74;98966.97;5092338;28;20032;-77
2021/03/25 09:57:42;;;;;;;44.60;23.05;;;;;;;10.00;51.59;98966.97;5092863;28;20372;-76
2021/03/25 10:00:23;;;;;;;65.05;36.35;;;;;;;9.95;51.33;98957.66;5092428;28;20349;-75
2021/03/25 10:02:49;;;;;;;43.58;23.55;;;;;;;9.96;49.89;98970.25;5092399;28;20040;-78
2021/03/25 10:05:36;;;;;;;58.47;31.48;;;;;;;9.86;50.36;98966.75;5092330;28;20024;-77
2021/03/25 10:08:14;;;;;;;52.50;30.02;;;;;;;9.86;49.52;98972.22;5092286;28;20055;-77
2021/03/25 10:10:49;;;;;;;53.13;27.05;;;;;;;9.78;48.79;98971.69;5092275;28;20058;-77
2021/03/25 10:13:19;;;;;;;210.50;74.75;;;;;;;9.71;50.42;98964.88;5091951;28;20060;-79
2021/03/25 10:15:59;;;;;;;119.03;43.53;;;;;;;9.80;50.85;98968.66;5090882;28;20729;-79
2021/03/25 10:18:24;;;;;;;72.50;36.03;;;;;;;9.85;50.35;98970.56;5090036;28;20035;-79
2021/03/25 10:20:58;;;;;;;52.55;28.08;;;;;;;9.85;50.37;98967.84;5091138;28;20384;-79
2021/03/25 10:23:32;;;;;;;130.25;47.70;;;;;;;9.87;50.16;98962.91;5090449;28;20064;-79
2021/03/25 10:26:09;;;;;;;62.65;35.05;;;;;;;9.91;49.74;98962.06;5090681;28;20032;-80
2021/03/25 10:28:52;;;;;;;51.78;27.48;;;;;;;9.77;49.06;98966.50;5091139;28;20027;-79
2021/03/25 10:31:27;;;;;;;52.35;28.30;;;;;;;9.65;49.15;98964.03;5091891;28;20105;-79
2021/03/25 10:34:02;;;;;;;59.35;32.05;;;;;;;9.62;48.97;98953.63;5092355;28;20422;-79
2021/03/25 10:36:46;;;;;;;51.83;26.17;;;;;;;9.68;48.86;98958.00;5092255;28;20032;-79
2021/03/25 10:39:37;;;;;;;48.00;26.48;;;;;;;9.80;49.46;98961.28;5092118;28;20035;-79
2021/03/25 10:42:39;;;;;;;49.67;25.27;;;;;;;9.92;48.70;98949.19;5091890;28;20077;-78
2021/03/25 10:45:29;;;;;;;45.85;24.60;;;;;;;9.99;49.13;98944.19;5095673;28;20024;-79
2021/03/25 10:48:02;;;;;;;84.80;39.90;;;;;;;10.12;49.48;98942.81;5096032;28;20036;-79
2021/03/25 10:50:39;;;;;;;47.90;26.60;;;;;;;10.16;48.32;98940.31;5095986;28;20099;-79
2021/03/25 10:53:12;;;;;;;71.05;34.72;;;;;;;10.23;49.22;98943.56;5095942;28;20032;-79
2021/03/25 10:55:44;;;;;;;49.67;26.50;;;;;;;10.36;49.35;98942.94;5096037;28;20028;-79
2021/03/25 10:58:29;;;;;;;61.28;31.95;;;;;;;10.51;48.32;98941.22;5095813;28;20464;-79
2021/03/25 11:01:24;;;;;;;47.50;25.15;;;;;;;10.72;48.70;98942.75;5095813;28;20020;-79
2021/03/25 11:03:50;;;;;;;49.17;26.98;;;;;;;10.79;47.56;98941.63;5095088;28;20476;-80
2021/03/25 11:06:31;;;;;;;50.78;27.85;;;;;;;10.81;47.76;98933.88;5095519;28;20028;-79
2021/03/25 11:09:04;;;;;;;168.98;63.60;;;;;;;10.79;46.92;98925.97;5095635;28;20030;-80
2021/03/25 11:11:29;;;;;;;76.65;39.55;;;;;;;10.80;46.99;98927.59;5095675;28;20020;-80
2021/03/25 11:14:15;;;;;;;48.45;26.77;;;;;;;10.79;47.52;98933.38;5095503;28;20549;-79
2021/03/25 11:16:53;;;;;;;43.70;23.75;;;;;;;10.79;46.89;98925.97;5095587;28;20083;-79
2021/03/25 11:19:19;;;;;;;50.60;27.92;;;;;;;10.87;46.53;98917.13;5095280;28;20066;-77
2021/03/25 11:21:45;;;;;;;57.20;29.58;;;;;;;11.04;47.37;98920.56;5095437;28;20103;-79
2021/03/25 11:24:32;;;;;;;52.95;28.27;;;;;;;11.12;47.18;98917.19;5095294;28;20024;-79
2021/03/25 11:27:04;;;;;;;46.20;25.42;;;;;;;11.31;46.78;98911.78;5095191;28;20391;-79
2021/03/25 11:29:33;;;;;;;51.45;26.95;;;;;;;11.26;44.73;98917.31;5095113;28;20028;-79
2021/03/25 11:32:11;;;;;;;58.67;32.17;;;;;;;11.20;45.71;98916.56;5095481;28;20039;-79
2021/03/25 11:34:41;;;;;;;52.85;29.25;;;;;;;11.33;46.52;98901.34;5095214;28;20043;-79
2021/03/25 11:37:32;;;;;;;43.38;24.80;;;;;;;11.53;46.28;98903.03;5095425;28;20158;-79
2021/03/25 11:39:59;;;;;;;45.42;25.35;;;;;;;11.49;45.24;98903.91;5095328;28;20150;-79
2021/03/25 11:42:26;;;;;;;49.53;27.50;;;;;;;11.57;45.07;98901.34;5095196;28;20024;-79
2021/03/25 11:44:52;;;;;;;52.72;28.63;;;;;;;11.67;45.35;98902.31;5095104;28;20055;-79
2021/03/25 11:47:45;;;;;;;54.13;28.85;;;;;;;11.60;44.21;98897.19;5095011;28;20033;-79
2021/03/25 11:50:20;;;;;;;55.38;30.50;;;;;;;11.56;44.64;98891.47;5095099;28;20020;-78
2021/03/25 11:52:53;;;;;;;47.67;26.55;;;;;;;11.67;45.66;98888.59;5094901;28;20027;-79
2021/03/25 11:55:24;;;;;;;65.38;33.10;;;;;;;11.87;46.23;98893.00;5093788;28;20031;-79
2021/03/25 11:57:51;;;;;;;53.40;28.63;;;;;;;12.02;45.22;98887.38;5095007;28;20528;-78
2021/03/25 12:00:23;;;;;;;51.75;28.60;;;;;;;12.14;46.25;98881.44;5094809;28;20024;-79